Time;durP1;ratioP1;P1;durP2;ratioP2;P2;SDS_P1;SDS_P2;PMS_P1;PMS_P2;Temp;Humidity;BMP_temperature;BMP_pressure;BME280_temperature;BME280_humidity;BME280_pressure;Samples;Min_cycle;Max_cycle;Signal;HPM_P1;HPM_P2
2022/10/03 05:26:27;;;;;;;24.57;14.57;;;8.40;99.90;;;;;;5859537;23;20272;-79
2022/10/03 05:29:24;;;;;;;21.00;15.23;;;8.40;99.90;;;;;;4998950;28;20671;-79
2022/10/03 05:32:06;;;;;;;25.80;15.03;;;8.30;99.90;;;;;;5001181;28;20244;-76
2022/10/03 05:34:51;;;;;;;23.23;14.90;;;8.20;99.90;;;;;;5013131;28;20194;-76
2022/10/03 05:37:40;;;;;;;23.03;15.07;;;8.20;99.90;;;;;;5018921;28;20194;-76
2022/10/03 05:40:16;;;;;;;21.47;15.10;;;8.20;99.90;;;;;;5018059;28;20210;-79
2022/10/03 05:43:06;;;;;;;26.53;16.03;;;8.10;99.90;;;;;;5018407;28;20195;-78
2022/10/03 05:45:48;;;;;;;19.87;14.80;;;8.10;99.90;;;;;;5014178;28;20222;-77
2022/10/03 05:48:30;;;;;;;20.03;15.20;;;8.10;99.90;;;;;;5013848;28;20202;-76
2022/10/03 05:51:32;;;;;;;26.63;15.33;;;8.10;99.90;;;;;;5018173;28;20194;-79
2022/10/03 05:54:25;;;;;;;27.63;15.60;;;8.10;99.90;;;;;;5017963;28;20201;-76
2022/10/03 05:57:33;;;;;;;26.77;16.63;;;8.10;99.90;;;;;;5017508;28;20396;-75
2022/10/03 06:00:18;;;;;;;22.67;15.13;;;8.10;99.90;;;;;;5017914;28;20214;-78
2022/10/03 06:03:26;;;;;;;21.40;15.30;;;8.20;99.90;;;;;;5018143;28;20202;-76
2022/10/03 06:06:11;;;;;;;20.97;15.00;;;8.30;99.90;;;;;;5016257;28;20234;-78
2022/10/03 06:09:23;;;;;;;25.17;17.60;;;8.40;99.90;;;;;;5016636;28;20190;-77
2022/10/03 06:12:04;;;;;;;19.70;15.47;;;8.40;99.90;;;;;;5009684;28;20292;-78
2022/10/03 06:14:44;;;;;;;20.23;14.40;;;8.60;99.90;;;;;;5011330;28;20213;-78
2022/10/03 06:17:35;;;;;;;20.87;14.27;;;8.60;99.90;;;;;;5002837;28;20199;-78
2022/10/03 06:20:29;;;;;;;16.77;13.77;;;8.60;99.90;;;;;;5000122;28;20238;-76
2022/10/03 06:23:34;;;;;;;18.27;13.57;;;8.80;99.90;;;;;;5001929;28;20213;-77
2022/10/03 06:26:25;;;;;;;18.70;13.90;;;9.00;99.90;;;;;;5007054;28;20230;-77
2022/10/03 06:29:39;;;;;;;17.63;13.00;;;9.10;99.90;;;;;;5015305;28;20240;-76
2022/10/03 06:32:52;;;;;;;22.73;14.00;;;9.10;99.90;;;;;;5012239;28;20237;-77
2022/10/03 06:35:54;;;;;;;21.37;15.23;;;9.10;99.90;;;;;;4989839;28;20213;-75
2022/10/03 06:39:03;;;;;;;19.50;15.77;;;9.20;99.90;;;;;;5017146;28;20232;-78
2022/10/03 06:42:11;;;;;;;17.43;13.50;;;9.20;99.90;;;;;;5015817;28;20244;-77
2022/10/03 06:45:15;;;;;;;18.77;13.87;;;9.30;99.90;;;;;;5015643;28;20206;-79
2022/10/03 06:48:03;;;;;;;19.37;13.63;;;9.30;99.90;;;;;;5012776;28;20241;-74
2022/10/03 06:50:53;;;;;;;18.70;14.00;;;9.30;99.90;;;;;;5014649;28;20210;-74
2022/10/03 06:53:55;;;;;;;18.00;14.10;;;9.40;99.90;;;;;;5018414;28;20254;-77
2022/10/03 06:56:53;;;;;;;21.37;14.50;;;9.40;99.90;;;;;;5017600;28;20202;-77
2022/10/03 06:59:49;;;;;;;24.17;14.80;;;9.40;99.90;;;;;;5015831;28;20209;-76
2022/10/03 07:02:44;;;;;;;15.37;13.47;;;9.40;99.90;;;;;;5013535;28;20230;-76
2022/10/03 07:05:59;;;;;;;19.90;14.10;;;9.50;99.90;;;;;;5003470;28;20250;-76
2022/10/03 07:09:07;;;;;;;18.30;13.53;;;9.50;99.90;;;;;;4999101;28;20197;-79
2022/10/03 07:12:05;;;;;;;22.23;13.33;;;9.60;99.90;;;;;;4999120;28;20301;-79
2022/10/03 07:15:23;;;;;;;16.83;12.40;;;9.70;99.90;;;;;;4998144;28;20202;-76
2022/10/03 07:18:49;;;;;;;17.20;12.17;;;9.80;99.90;;;;;;4998967;28;20233;-76
2022/10/03 07:22:04;;;;;;;15.60;11.73;;;9.90;99.90;;;;;;4979341;28;20391;-79
2022/10/03 07:25:19;;;;;;;14.47;11.20;;;10.20;99.90;;;;;;4996855;28;20226;-79
2022/10/03 07:28:05;;;;;;;13.00;9.93;;;10.40;99.90;;;;;;4997769;28;20221;-79
2022/10/03 07:30:55;;;;;;;12.73;10.20;;;10.50;99.90;;;;;;4996713;28;20221;-79
2022/10/03 07:33:54;;;;;;;12.63;10.80;;;10.50;99.90;;;;;;4998156;28;20198;-80
2022/10/03 07:40:01;;;;;;;14.03;10.33;;;10.60;99.90;;;;;;4994789;28;20686;-79
2022/10/03 07:42:58;;;;;;;13.23;10.10;;;10.50;99.90;;;;;;4995954;28;20210;-76
2022/10/03 07:45:33;;;;;;;12.10;10.33;;;10.50;99.90;;;;;;4995303;28;20233;-77
2022/10/03 07:48:49;;;;;;;18.23;11.13;;;10.50;99.90;;;;;;4998283;28;20212;-78
2022/10/03 07:51:24;;;;;;;15.60;12.23;;;10.60;99.90;;;;;;4968629;28;20214;-75
2022/10/03 07:54:19;;;;;;;13.67;11.13;;;10.70;99.90;;;;;;4994590;28;20202;-78
2022/10/03 07:57:11;;;;;;;12.60;10.93;;;10.70;99.90;;;;;;4994666;28;20619;-79
2022/10/03 08:00:13;;;;;;;13.80;11.17;;;10.90;99.90;;;;;;4993270;28;20202;-78
2022/10/03 08:03:13;;;;;;;12.30;10.77;;;11.30;99.90;;;;;;4990541;28;20241;-77
2022/10/03 08:05:55;;;;;;;14.60;10.13;;;11.30;99.90;;;;;;4986522;28;20222;-77
2022/10/03 08:08:53;;;;;;;13.37;9.50;;;11.10;99.90;;;;;;4992230;28;20221;-79
2022/10/03 08:11:41;;;;;;;15.10;9.60;;;11.10;99.90;;;;;;4993433;28;20230;-78
2022/10/03 08:14:34;;;;;;;14.03;9.40;;;11.20;99.90;;;;;;4993920;28;20214;-79
2022/10/03 08:17:48;;;;;;;13.53;9.17;;;11.30;99.90;;;;;;4994334;28;20194;-79
2022/10/03 08:20:45;;;;;;;13.07;8.30;;;11.40;99.90;;;;;;4961848;28;20206;-78
2022/10/03 08:23:46;;;;;;;12.80;8.10;;;11.80;99.90;;;;;;4997198;28;20206;-78
2022/10/03 08:26:22;;;;;;;11.07;7.97;;;11.90;99.90;;;;;;4997750;28;20249;-78
2022/10/03 08:29:28;;;;;;;17.17;10.77;;;11.90;99.90;;;;;;4997214;28;20209;-77
2022/10/03 08:32:28;;;;;;;16.90;13.60;;;11.90;99.90;;;;;;4998054;28;20214;-78
2022/10/03 08:35:36;;;;;;;11.33;7.90;;;12.00;99.90;;;;;;4997178;28;20687;-77
2022/10/03 08:38:36;;;;;;;9.83;7.57;;;12.00;99.90;;;;;;4996844;28;20214;-79
2022/10/03 08:41:37;;;;;;;10.57;6.73;;;11.90;99.90;;;;;;4996970;28;20198;-79
2022/10/03 08:44:54;;;;;;;10.93;7.50;;;12.00;99.90;;;;;;4996737;28;22430;-79
2022/10/03 08:47:47;;;;;;;9.67;6.30;;;12.20;99.90;;;;;;4965128;28;20731;-80
2022/10/03 08:50:35;;;;;;;10.47;6.70;;;12.30;99.90;;;;;;4996097;28;20206;-77
2022/10/03 08:53:34;;;;;;;10.33;6.13;;;12.40;99.90;;;;;;4997636;28;20201;-79
2022/10/03 08:56:06;;;;;;;10.97;7.03;;;12.30;99.90;;;;;;4953441;28;20215;-80
2022/10/03 08:59:04;;;;;;;9.47;5.97;;;12.40;99.90;;;;;;4976879;28;20202;-77
2022/10/03 18:49:56;;;;;;;14.83;9.00;;;8.00;99.90;;;;;;4846123;29;20539;-76
2022/10/03 18:52:33;;;;;;;14.97;9.07;;;7.90;99.90;;;;;;4846459;29;20207;-80
2022/10/03 18:55:04;;;;;;;14.73;8.67;;;7.90;99.90;;;;;;4850262;29;20210;-77
